createdAt,value
2022-09-22T00:02:09.705Z,100.00
2022-09-22T00:07:13.138Z,100.00
2022-09-22T00:12:17.337Z,100.00
2022-09-22T00:17:23.270Z,100.00
2022-09-22T00:22:26.018Z,100.00
2022-09-22T00:27:30.217Z,100.00
2022-09-22T00:32:32.929Z,100.00
2022-09-22T00:37:35.614Z,100.00
2022-09-22T00:42:39.754Z,100.00
2022-09-22T00:47:44.747Z,100.00
2022-09-22T00:52:50.100Z,100.00
2022-09-22T00:57:54.997Z,100.00
2022-09-22T01:03:00.137Z,100.00
2022-09-22T01:08:04.538Z,100.00
2022-09-22T01:13:22.607Z,100.00
2022-09-22T01:18:34.114Z,100.00
2022-09-22T01:24:13.570Z,100.00
2022-09-22T01:29:38.855Z,100.00
2022-09-22T01:34:48.681Z,100.00
2022-09-22T01:39:55.753Z,100.00
2022-09-22T01:45:04.087Z,100.00
2022-09-22T01:50:13.830Z,100.00
2022-09-22T01:55:21.543Z,100.00
2022-09-22T02:00:24.406Z,100.00
2022-09-22T02:05:34.213Z,100.00
2022-09-22T02:10:42.038Z,100.00
2022-09-22T02:16:03.044Z,100.00
2022-09-22T02:21:07.327Z,100.00
2022-09-22T02:26:11.794Z,100.00
2022-09-22T02:31:20.786Z,100.00
2022-09-22T02:36:39.725Z,100.00
2022-09-22T02:41:57.765Z,100.00
2022-09-22T02:47:05.114Z,100.00
2022-09-22T02:52:11.739Z,100.00
2022-09-22T02:57:14.514Z,100.00
2022-09-22T03:02:17.312Z,100.00
2022-09-22T03:07:21.739Z,100.00
2022-09-22T03:12:24.542Z,100.00
2022-09-22T03:17:27.213Z,100.00
2022-09-22T03:22:31.314Z,100.00
2022-09-22T03:27:34.015Z,100.00
2022-09-22T03:32:37.185Z,100.00
2022-09-22T03:37:41.223Z,100.00
2022-09-22T03:42:43.881Z,100.00
2022-09-22T03:47:47.110Z,100.00
2022-09-22T03:52:51.145Z,100.00
2022-09-22T03:57:53.826Z,100.00
2022-09-22T04:02:57.870Z,100.00
2022-09-22T04:08:02.389Z,100.00
2022-09-22T04:13:05.099Z,100.00
2022-09-22T04:18:07.872Z,100.00
2022-09-22T04:23:12.076Z,100.00
2022-09-22T04:28:14.743Z,100.00
2022-09-22T04:38:46.453Z,100.00
2022-09-22T04:43:49.142Z,100.00
2022-09-22T04:48:51.827Z,100.00
2022-09-22T04:53:55.954Z,100.00
2022-09-22T04:58:58.643Z,100.00
2022-09-22T05:04:01.496Z,100.00
2022-09-22T05:09:06.529Z,100.00
2022-09-22T05:14:09.381Z,100.00
2022-09-22T05:19:12.249Z,100.00
2022-09-22T05:24:16.296Z,100.00
2022-09-22T05:29:18.974Z,100.00
2022-09-22T05:34:21.651Z,100.00
2022-09-22T05:39:25.669Z,100.00
2022-09-22T05:44:28.349Z,100.00
2022-09-22T05:49:31.055Z,100.00
2022-09-22T05:54:35.711Z,100.00
2022-09-22T05:59:38.371Z,100.00
2022-09-22T06:04:41.057Z,100.00
2022-09-22T06:09:45.347Z,100.00
2022-09-22T06:14:48.043Z,100.00
2022-09-22T06:19:50.816Z,100.00
2022-09-22T06:24:54.835Z,100.00
2022-09-22T06:29:59.450Z,100.00
2022-09-22T06:35:02.541Z,100.00
2022-09-22T06:40:11.054Z,100.00
2022-09-22T06:45:16.058Z,100.00
2022-09-22T06:50:19.465Z,100.00
2022-09-22T06:55:23.540Z,100.00
2022-09-22T07:00:28.582Z,100.00
2022-09-22T07:05:31.256Z,100.00
2022-09-22T07:10:38.515Z,100.00
2022-09-22T07:15:41.527Z,100.00
2022-09-22T07:20:45.829Z,100.00
2022-09-22T07:25:56.387Z,100.00
2022-09-22T07:31:06.060Z,100.00
2022-09-22T07:36:12.356Z,100.00
2022-09-22T07:41:19.321Z,100.00
2022-09-22T07:46:22.577Z,100.00
2022-09-22T07:51:27.441Z,100.00
2022-09-22T07:56:33.542Z,100.00
2022-09-22T08:01:36.973Z,100.00
2022-09-22T08:06:40.607Z,100.00
2022-09-22T08:11:48.622Z,99.19
2022-09-22T08:16:53.376Z,97.20
2022-09-22T08:21:56.391Z,97.72
2022-09-22T08:27:00.421Z,95.85
2022-09-22T08:32:03.934Z,93.57
2022-09-22T08:37:06.646Z,91.98
2022-09-22T08:42:20.667Z,90.70
2022-09-22T08:47:51.036Z,89.81
2022-09-22T08:52:59.653Z,90.14
2022-09-22T08:58:09.115Z,88.58
2022-09-22T09:03:27.663Z,88.04
2022-09-22T09:09:07.206Z,84.22
2022-09-22T09:14:24.150Z,82.89
2022-09-22T09:19:35.059Z,82.89
2022-09-22T09:30:15.359Z,79.87
2022-09-22T09:35:24.060Z,79.44
2022-09-22T09:40:27.661Z,78.67
2022-09-22T09:45:38.411Z,78.56
2022-09-22T09:50:41.153Z,74.71
2022-09-22T09:55:44.179Z,75.80
2022-09-22T10:01:00.633Z,71.59
2022-09-22T10:06:06.252Z,72.52
2022-09-22T10:11:10.642Z,70.90
2022-09-22T10:16:25.118Z,66.55
2022-09-22T10:21:29.658Z,67.67
2022-09-22T10:26:34.367Z,62.14
2022-09-22T10:31:38.895Z,60.42
2022-09-22T10:36:45.896Z,59.39
2022-09-22T10:41:50.060Z,60.35
2022-09-22T10:47:13.498Z,57.39
2022-09-22T10:52:21.701Z,56.34
2022-09-22T10:57:58.309Z,57.01
2022-09-22T11:03:37.178Z,54.13
2022-09-22T11:09:06.479Z,52.16
2022-09-22T11:14:22.693Z,52.27
2022-09-22T11:19:39.001Z,53.31
2022-09-22T11:24:55.710Z,50.85
2022-09-22T11:30:16.765Z,51.65
2022-09-22T11:35:56.435Z,50.25
2022-09-22T11:41:18.580Z,50.35
2022-09-22T11:46:28.391Z,50.71
2022-09-22T11:51:45.435Z,47.67
2022-09-22T11:56:52.890Z,46.79
2022-09-22T12:01:58.284Z,46.80
2022-09-22T12:07:03.863Z,47.07
2022-09-22T12:12:15.774Z,45.62
2022-09-22T12:17:24.330Z,46.18
2022-09-22T12:22:33.094Z,44.65
2022-09-22T12:27:37.887Z,43.46
2022-09-22T12:32:45.820Z,42.71
2022-09-22T12:37:48.661Z,43.10
2022-09-22T12:42:54.478Z,41.96
2022-09-22T12:47:59.428Z,42.42
2022-09-22T12:53:10.388Z,42.25
2022-09-22T12:58:43.717Z,39.24
2022-09-22T13:03:51.929Z,39.19
2022-09-22T13:09:21.312Z,40.09
2022-09-22T13:15:01.294Z,42.30
2022-09-22T13:20:16.250Z,42.71
2022-09-22T13:25:30.013Z,45.92
2022-09-22T13:30:33.222Z,47.60
2022-09-22T13:35:39.841Z,48.76
2022-09-22T13:40:47.257Z,47.83
2022-09-22T13:45:51.461Z,47.86
2022-09-22T13:51:00.407Z,50.00
2022-09-22T13:56:03.753Z,48.63
2022-09-22T14:01:16.913Z,49.81
2022-09-22T14:06:22.937Z,49.96
2022-09-22T14:11:51.347Z,50.79
2022-09-22T14:16:59.365Z,49.77
2022-09-22T14:22:05.767Z,51.35
2022-09-22T14:27:14.914Z,49.97
2022-09-22T14:32:24.399Z,50.23
2022-09-22T14:37:34.311Z,48.72
2022-09-22T14:42:37.197Z,47.93
2022-09-22T14:47:40.639Z,47.59
2022-09-22T14:52:52.922Z,48.53
2022-09-22T14:57:56.425Z,48.72
2022-09-22T15:02:59.910Z,47.62
2022-09-22T15:08:04.002Z,47.60
2022-09-22T15:13:28.090Z,47.08
2022-09-22T15:18:31.310Z,47.88
2022-09-22T15:23:41.013Z,47.29
2022-09-22T15:28:47.628Z,47.87
2022-09-22T15:33:50.363Z,49.19
2022-09-22T15:38:59.540Z,48.91
2022-09-22T15:44:02.958Z,48.59
2022-09-22T15:49:11.903Z,48.97
2022-09-22T15:54:18.496Z,49.69
2022-09-22T15:59:24.463Z,50.52
2022-09-22T16:04:30.002Z,50.78
2022-09-22T16:09:34.294Z,51.54
2022-09-22T16:14:37.190Z,51.86
2022-09-22T16:19:39.859Z,52.02
2022-09-22T16:24:44.281Z,51.70
2022-09-22T16:29:47.054Z,53.17
2022-09-22T16:34:49.743Z,52.98
2022-09-22T16:39:53.767Z,54.28
2022-09-22T16:44:56.867Z,54.62
2022-09-22T16:50:00.824Z,58.20
2022-09-22T16:55:06.740Z,58.36
2022-09-22T17:00:12.049Z,61.15
2022-09-22T17:05:15.208Z,61.90
2022-09-22T17:10:20.067Z,62.13
2022-09-22T17:15:22.749Z,61.96
2022-09-22T17:20:25.481Z,63.71
2022-09-22T17:25:29.556Z,65.92
2022-09-22T17:30:32.309Z,67.77
2022-09-22T17:35:35.131Z,70.51
2022-09-22T17:40:42.586Z,72.29
2022-09-22T17:45:45.400Z,74.59
2022-09-22T17:51:07.961Z,76.77
2022-09-22T17:56:13.197Z,79.08
2022-09-22T18:01:16.051Z,82.47
2022-09-22T18:06:20.036Z,83.43
2022-09-22T18:11:27.777Z,84.14
2022-09-22T18:16:33.229Z,85.71
2022-09-22T18:21:39.231Z,86.41
2022-09-22T18:26:43.367Z,89.25
2022-09-22T18:31:46.311Z,92.02
2022-09-22T18:36:49.050Z,94.62
2022-09-22T18:41:55.554Z,96.76
2022-09-22T18:47:02.038Z,97.68
2022-09-22T18:52:04.857Z,97.27
2022-09-22T18:57:10.498Z,97.70
2022-09-22T19:02:13.272Z,100.00
2022-09-22T19:07:36.542Z,100.00
2022-09-22T19:12:43.457Z,100.00
2022-09-22T19:17:49.230Z,100.00
2022-09-22T19:22:53.686Z,100.00
2022-09-22T19:27:57.789Z,100.00
2022-09-22T19:33:01.152Z,100.00
2022-09-22T19:38:05.137Z,100.00
2022-09-22T19:43:09.206Z,100.00
2022-09-22T19:48:14.213Z,100.00
2022-09-22T19:53:16.957Z,100.00
2022-09-22T19:58:21.063Z,100.00
2022-09-22T20:03:23.850Z,100.00
2022-09-22T20:08:27.169Z,100.00
2022-09-22T20:13:49.095Z,100.00
2022-09-22T20:18:51.929Z,100.00
2022-09-22T20:23:55.219Z,100.00
2022-09-22T20:28:59.959Z,100.00
2022-09-22T20:34:02.718Z,100.00
2022-09-22T20:39:06.263Z,100.00
2022-09-22T20:44:15.237Z,100.00
2022-09-22T20:49:19.449Z,100.00
2022-09-22T20:54:24.313Z,100.00
2022-09-22T20:59:28.537Z,100.00
2022-09-22T21:04:31.820Z,100.00
2022-09-22T21:09:52.089Z,100.00
2022-09-22T21:14:56.415Z,100.00
2022-09-22T21:19:59.119Z,100.00
2022-09-22T21:25:03.167Z,100.00
2022-09-22T21:30:09.266Z,100.00
2022-09-22T21:35:16.442Z,100.00
2022-09-22T21:40:20.454Z,100.00
2022-09-22T21:45:24.860Z,100.00
2022-09-22T21:50:28.199Z,100.00
2022-09-22T21:55:31.334Z,100.00
2022-09-22T22:00:51.239Z,100.00
2022-09-22T22:06:00.717Z,100.00
2022-09-22T22:11:05.208Z,100.00
2022-09-22T22:16:11.367Z,100.00
2022-09-22T22:21:16.276Z,100.00
2022-09-22T22:26:21.916Z,100.00
2022-09-22T22:31:26.085Z,100.00
2022-09-22T22:36:28.991Z,100.00
2022-09-22T22:41:35.871Z,100.00
2022-09-22T22:46:40.478Z,100.00
2022-09-22T22:51:44.090Z,100.00
2022-09-22T22:56:50.747Z,100.00
2022-09-22T23:01:55.430Z,100.00
2022-09-22T23:06:58.189Z,100.00
2022-09-22T23:12:00.987Z,100.00
2022-09-22T23:17:05.179Z,100.00
2022-09-22T23:22:07.869Z,100.00
2022-09-22T23:27:10.726Z,100.00
2022-09-22T23:32:15.449Z,100.00
2022-09-22T23:37:19.699Z,100.00
2022-09-22T23:42:24.421Z,100.00
2022-09-22T23:47:28.622Z,100.00
2022-09-22T23:52:31.369Z,100.00
2022-09-22T23:57:34.048Z,100.00
